sensor_id;sensor_type;location;lat;lon;timestamp;temperature;humidity
18779;DHT22;9518;51.720;14.384;2023-07-29T00:01:40;16.80;99.90
18779;DHT22;9518;51.720;14.384;2023-07-29T00:04:07;16.70;99.90
18779;DHT22;9518;51.720;14.384;2023-07-29T00:06:35;16.70;99.90
18779;DHT22;9518;51.720;14.384;2023-07-29T00:09:02;16.60;99.90
18779;DHT22;9518;51.720;14.384;2023-07-29T00:11:31;16.50;99.90
18779;DHT22;9518;51.720;14.384;2023-07-29T00:13:59;16.60;99.90
18779;DHT22;9518;51.720;14.384;2023-07-29T00:16:26;16.60;99.90
18779;DHT22;9518;51.720;14.384;2023-07-29T00:18:53;16.60;99.90
18779;DHT22;9518;51.720;14.384;2023-07-29T00:21:20;16.50;99.90
18779;DHT22;9518;51.720;14.384;2023-07-29T00:23:47;16.40;99.90
18779;DHT22;9518;51.720;14.384;2023-07-29T00:26:14;16.40;99.90
18779;DHT22;9518;51.720;14.384;2023-07-29T00:28:43;16.30;99.90
18779;DHT22;9518;51.720;14.384;2023-07-29T00:31:10;16.30;99.90
18779;DHT22;9518;51.720;14.384;2023-07-29T00:33:37;16.20;99.90
18779;DHT22;9518;51.720;14.384;2023-07-29T00:36:04;16.30;99.90
18779;DHT22;9518;51.720;14.384;2023-07-29T00:38:31;16.20;99.90
18779;DHT22;9518;51.720;14.384;2023-07-29T00:40:58;16.20;99.90
18779;DHT22;9518;51.720;14.384;2023-07-29T00:43:26;16.20;99.90
18779;DHT22;9518;51.720;14.384;2023-07-29T00:45:55;16.20;99.90
18779;DHT22;9518;51.720;14.384;2023-07-29T00:48:23;16.10;99.90
18779;DHT22;9518;51.720;14.384;2023-07-29T00:50:50;16.10;99.90
18779;DHT22;9518;51.720;14.384;2023-07-29T00:53:17;16.00;99.90
18779;DHT22;9518;51.720;14.384;2023-07-29T00:55:44;16.00;99.90
18779;DHT22;9518;51.720;14.384;2023-07-29T00:58:12;16.00;99.90
18779;DHT22;9518;51.720;14.384;2023-07-29T01:00:39;16.00;99.90
18779;DHT22;9518;51.720;14.384;2023-07-29T01:03:08;16.00;99.90
18779;DHT22;9518;51.720;14.384;2023-07-29T01:05:41;15.90;99.90
18779;DHT22;9518;51.720;14.384;2023-07-29T01:08:20;15.90;99.90
18779;DHT22;9518;51.720;14.384;2023-07-29T01:10:56;15.90;99.90
18779;DHT22;9518;51.720;14.384;2023-07-29T01:13:30;15.90;99.90
18779;DHT22;9518;51.720;14.384;2023-07-29T01:16:01;15.80;99.90
18779;DHT22;9518;51.720;14.384;2023-07-29T01:18:35;15.70;99.90
18779;DHT22;9518;51.720;14.384;2023-07-29T01:21:04;15.70;99.90
18779;DHT22;9518;51.720;14.384;2023-07-29T01:23:35;15.60;99.90
18779;DHT22;9518;51.720;14.384;2023-07-29T01:26:03;15.60;99.90
18779;DHT22;9518;51.720;14.384;2023-07-29T01:28:30;15.60;99.90
18779;DHT22;9518;51.720;14.384;2023-07-29T01:31:02;15.60;99.90
18779;DHT22;9518;51.720;14.384;2023-07-29T01:33:35;15.60;99.90
18779;DHT22;9518;51.720;14.384;2023-07-29T01:36:10;15.70;99.90
18779;DHT22;9518;51.720;14.384;2023-07-29T01:38:41;15.60;99.90
18779;DHT22;9518;51.720;14.384;2023-07-29T01:41:10;15.60;99.90
18779;DHT22;9518;51.720;14.384;2023-07-29T01:43:37;15.50;99.90
18779;DHT22;9518;51.720;14.384;2023-07-29T01:46:09;15.50;99.90
18779;DHT22;9518;51.720;14.384;2023-07-29T01:48:37;15.50;99.90
18779;DHT22;9518;51.720;14.384;2023-07-29T01:51:04;15.40;99.90
18779;DHT22;9518;51.720;14.384;2023-07-29T01:53:31;15.40;99.90
18779;DHT22;9518;51.720;14.384;2023-07-29T01:56:00;15.40;99.90
18779;DHT22;9518;51.720;14.384;2023-07-29T01:58:28;15.30;99.90
18779;DHT22;9518;51.720;14.384;2023-07-29T02:00:55;15.30;99.90
18779;DHT22;9518;51.720;14.384;2023-07-29T02:03:22;15.20;99.90
18779;DHT22;9518;51.720;14.384;2023-07-29T02:05:49;15.20;99.90
18779;DHT22;9518;51.720;14.384;2023-07-29T02:08:16;15.20;99.90
18779;DHT22;9518;51.720;14.384;2023-07-29T02:10:43;15.20;99.90
18779;DHT22;9518;51.720;14.384;2023-07-29T02:13:12;15.20;99.90
18779;DHT22;9518;51.720;14.384;2023-07-29T02:15:39;15.10;99.90
18779;DHT22;9518;51.720;14.384;2023-07-29T02:18:06;15.10;99.90
18779;DHT22;9518;51.720;14.384;2023-07-29T02:20:33;15.00;99.90
18779;DHT22;9518;51.720;14.384;2023-07-29T02:23:00;15.00;99.90
18779;DHT22;9518;51.720;14.384;2023-07-29T02:25:27;15.00;99.90
18779;DHT22;9518;51.720;14.384;2023-07-29T02:27:54;14.90;99.90
18779;DHT22;9518;51.720;14.384;2023-07-29T02:30:22;14.90;99.90
18779;DHT22;9518;51.720;14.384;2023-07-29T02:32:49;14.90;99.90
18779;DHT22;9518;51.720;14.384;2023-07-29T02:35:16;14.90;99.90
18779;DHT22;9518;51.720;14.384;2023-07-29T02:37:43;14.90;99.90
18779;DHT22;9518;51.720;14.384;2023-07-29T02:40:11;14.90;99.90
18779;DHT22;9518;51.720;14.384;2023-07-29T02:42:38;15.00;99.90
18779;DHT22;9518;51.720;14.384;2023-07-29T02:45:06;15.00;99.90
18779;DHT22;9518;51.720;14.384;2023-07-29T02:47:37;15.00;99.90
18779;DHT22;9518;51.720;14.384;2023-07-29T02:50:05;14.90;99.90
18779;DHT22;9518;51.720;14.384;2023-07-29T02:52:32;15.00;99.90
18779;DHT22;9518;51.720;14.384;2023-07-29T02:54:59;15.00;99.90
18779;DHT22;9518;51.720;14.384;2023-07-29T02:57:26;14.90;99.90
18779;DHT22;9518;51.720;14.384;2023-07-29T02:59:53;14.90;99.90
18779;DHT22;9518;51.720;14.384;2023-07-29T03:02:20;14.90;99.90
18779;DHT22;9518;51.720;14.384;2023-07-29T03:04:49;14.90;99.90
18779;DHT22;9518;51.720;14.384;2023-07-29T03:07:16;14.80;99.90
18779;DHT22;9518;51.720;14.384;2023-07-29T03:09:43;14.90;99.90
18779;DHT22;9518;51.720;14.384;2023-07-29T03:12:10;15.00;99.90
18779;DHT22;9518;51.720;14.384;2023-07-29T03:14:37;15.20;99.90
18779;DHT22;9518;51.720;14.384;2023-07-29T03:17:05;15.30;99.90
18779;DHT22;9518;51.720;14.384;2023-07-29T03:19:32;15.40;99.90
18779;DHT22;9518;51.720;14.384;2023-07-29T03:22:00;15.50;99.90
18779;DHT22;9518;51.720;14.384;2023-07-29T03:24:27;15.50;99.90
18779;DHT22;9518;51.720;14.384;2023-07-29T03:26:54;15.40;99.90
18779;DHT22;9518;51.720;14.384;2023-07-29T03:29:21;15.40;99.90
18779;DHT22;9518;51.720;14.384;2023-07-29T03:31:48;15.30;99.90
18779;DHT22;9518;51.720;14.384;2023-07-29T03:34:15;15.30;99.90
18779;DHT22;9518;51.720;14.384;2023-07-29T03:36:42;15.30;99.90
18779;DHT22;9518;51.720;14.384;2023-07-29T03:39:13;15.30;99.90
18779;DHT22;9518;51.720;14.384;2023-07-29T03:41:39;15.30;99.90
18779;DHT22;9518;51.720;14.384;2023-07-29T03:44:06;15.40;99.90
18779;DHT22;9518;51.720;14.384;2023-07-29T03:46:33;15.30;99.90
18779;DHT22;9518;51.720;14.384;2023-07-29T03:49:00;15.40;99.90
18779;DHT22;9518;51.720;14.384;2023-07-29T03:51:30;15.50;99.90
18779;DHT22;9518;51.720;14.384;2023-07-29T03:53:57;15.50;99.90
18779;DHT22;9518;51.720;14.384;2023-07-29T03:56:25;15.50;99.90
18779;DHT22;9518;51.720;14.384;2023-07-29T03:58:53;15.60;99.90
18779;DHT22;9518;51.720;14.384;2023-07-29T04:01:20;15.60;99.90
18779;DHT22;9518;51.720;14.384;2023-07-29T04:03:47;15.60;99.90
18779;DHT22;9518;51.720;14.384;2023-07-29T04:06:14;15.60;99.90
18779;DHT22;9518;51.720;14.384;2023-07-29T04:08:41;15.60;99.90
18779;DHT22;9518;51.720;14.384;2023-07-29T04:11:08;15.70;99.90
18779;DHT22;9518;51.720;14.384;2023-07-29T04:13:36;15.80;99.90
18779;DHT22;9518;51.720;14.384;2023-07-29T04:16:04;16.00;99.90
18779;DHT22;9518;51.720;14.384;2023-07-29T04:18:31;16.20;99.90
18779;DHT22;9518;51.720;14.384;2023-07-29T04:20:58;16.30;99.90
18779;DHT22;9518;51.720;14.384;2023-07-29T04:23:25;16.40;99.90
18779;DHT22;9518;51.720;14.384;2023-07-29T04:25:52;16.60;99.90
18779;DHT22;9518;51.720;14.384;2023-07-29T04:28:19;16.80;99.90
18779;DHT22;9518;51.720;14.384;2023-07-29T04:30:47;17.10;99.90
18779;DHT22;9518;51.720;14.384;2023-07-29T04:33:15;17.30;99.90
18779;DHT22;9518;51.720;14.384;2023-07-29T04:35:42;17.50;99.90
18779;DHT22;9518;51.720;14.384;2023-07-29T04:38:09;17.60;99.90
18779;DHT22;9518;51.720;14.384;2023-07-29T04:40:35;17.70;99.90
18779;DHT22;9518;51.720;14.384;2023-07-29T04:43:03;17.80;99.90
18779;DHT22;9518;51.720;14.384;2023-07-29T04:45:30;17.80;99.90
18779;DHT22;9518;51.720;14.384;2023-07-29T04:47:59;17.80;99.90
18779;DHT22;9518;51.720;14.384;2023-07-29T04:50:26;17.90;99.90
18779;DHT22;9518;51.720;14.384;2023-07-29T04:52:53;18.00;99.90
18779;DHT22;9518;51.720;14.384;2023-07-29T04:55:20;18.00;99.90
18779;DHT22;9518;51.720;14.384;2023-07-29T04:57:47;18.00;99.90
18779;DHT22;9518;51.720;14.384;2023-07-29T05:00:14;18.10;99.90
18779;DHT22;9518;51.720;14.384;2023-07-29T05:02:41;18.10;99.90
18779;DHT22;9518;51.720;14.384;2023-07-29T05:05:09;18.10;99.90
18779;DHT22;9518;51.720;14.384;2023-07-29T05:07:36;18.10;99.90
18779;DHT22;9518;51.720;14.384;2023-07-29T05:10:04;18.20;99.90
18779;DHT22;9518;51.720;14.384;2023-07-29T05:12:31;18.30;99.90
18779;DHT22;9518;51.720;14.384;2023-07-29T05:14:58;18.40;99.90
18779;DHT22;9518;51.720;14.384;2023-07-29T05:17:25;18.50;99.90
18779;DHT22;9518;51.720;14.384;2023-07-29T05:19:52;18.60;99.90
18779;DHT22;9518;51.720;14.384;2023-07-29T05:22:21;18.70;99.90
18779;DHT22;9518;51.720;14.384;2023-07-29T05:24:47;18.70;99.90
18779;DHT22;9518;51.720;14.384;2023-07-29T05:27:14;18.90;99.90
18779;DHT22;9518;51.720;14.384;2023-07-29T05:29:42;18.90;99.90
18779;DHT22;9518;51.720;14.384;2023-07-29T05:32:09;19.10;99.90
18779;DHT22;9518;51.720;14.384;2023-07-29T05:34:36;19.10;99.90
18779;DHT22;9518;51.720;14.384;2023-07-29T05:37:03;19.20;99.90
18779;DHT22;9518;51.720;14.384;2023-07-29T05:39:31;19.10;99.90
18779;DHT22;9518;51.720;14.384;2023-07-29T05:41:59;19.00;99.90
18779;DHT22;9518;51.720;14.384;2023-07-29T05:44:28;18.80;99.90
18779;DHT22;9518;51.720;14.384;2023-07-29T05:46:56;18.80;99.90
18779;DHT22;9518;51.720;14.384;2023-07-29T05:49:23;18.80;99.90
18779;DHT22;9518;51.720;14.384;2023-07-29T05:51:50;19.00;99.90
18779;DHT22;9518;51.720;14.384;2023-07-29T05:54:18;19.30;99.90
18779;DHT22;9518;51.720;14.384;2023-07-29T05:56:47;19.70;99.90
18779;DHT22;9518;51.720;14.384;2023-07-29T05:59:14;19.90;99.90
18779;DHT22;9518;51.720;14.384;2023-07-29T06:01:41;20.20;99.90
18779;DHT22;9518;51.720;14.384;2023-07-29T06:04:08;20.50;99.90
18779;DHT22;9518;51.720;14.384;2023-07-29T06:06:35;20.70;99.90
18779;DHT22;9518;51.720;14.384;2023-07-29T06:09:02;20.90;99.90
18779;DHT22;9518;51.720;14.384;2023-07-29T06:11:29;21.10;99.90
18779;DHT22;9518;51.720;14.384;2023-07-29T06:14:00;21.20;99.90
18779;DHT22;9518;51.720;14.384;2023-07-29T06:16:27;21.40;99.90
18779;DHT22;9518;51.720;14.384;2023-07-29T06:18:54;21.60;1.00
18779;DHT22;9518;51.720;14.384;2023-07-29T06:21:21;21.70;1.00
18779;DHT22;9518;51.720;14.384;2023-07-29T06:23:49;21.70;1.00
18779;DHT22;9518;51.720;14.384;2023-07-29T06:26:16;21.80;1.00
18779;DHT22;9518;51.720;14.384;2023-07-29T06:28:42;21.90;1.00
18779;DHT22;9518;51.720;14.384;2023-07-29T06:31:11;22.00;1.00
18779;DHT22;9518;51.720;14.384;2023-07-29T06:33:38;22.20;1.00
18779;DHT22;9518;51.720;14.384;2023-07-29T06:36:05;22.30;1.00
18779;DHT22;9518;51.720;14.384;2023-07-29T06:38:32;22.50;99.90
18779;DHT22;9518;51.720;14.384;2023-07-29T06:40:59;22.60;1.00
18779;DHT22;9518;51.720;14.384;2023-07-29T06:43:26;22.80;99.90
18779;DHT22;9518;51.720;14.384;2023-07-29T06:45:53;23.10;99.90
18779;DHT22;9518;51.720;14.384;2023-07-29T06:48:22;23.20;1.00
18779;DHT22;9518;51.720;14.384;2023-07-29T06:50:49;23.30;1.00
18779;DHT22;9518;51.720;14.384;2023-07-29T06:53:16;23.40;1.00
18779;DHT22;9518;51.720;14.384;2023-07-29T06:55:44;23.30;1.00
18779;DHT22;9518;51.720;14.384;2023-07-29T06:58:11;23.30;1.00
18779;DHT22;9518;51.720;14.384;2023-07-29T07:00:38;23.40;1.00
18779;DHT22;9518;51.720;14.384;2023-07-29T07:03:05;23.70;1.00
18779;DHT22;9518;51.720;14.384;2023-07-29T07:05:33;24.00;1.00
18779;DHT22;9518;51.720;14.384;2023-07-29T07:08:01;24.20;1.00
18779;DHT22;9518;51.720;14.384;2023-07-29T07:10:28;24.50;1.00
18779;DHT22;9518;51.720;14.384;2023-07-29T07:12:55;24.90;1.00
18779;DHT22;9518;51.720;14.384;2023-07-29T07:15:22;25.10;1.00
18779;DHT22;9518;51.720;14.384;2023-07-29T07:17:49;24.90;1.00
18779;DHT22;9518;51.720;14.384;2023-07-29T07:20:16;24.80;1.00
18779;DHT22;9518;51.720;14.384;2023-07-29T07:22:45;24.90;1.00
18779;DHT22;9518;51.720;14.384;2023-07-29T07:25:12;24.90;1.00
18779;DHT22;9518;51.720;14.384;2023-07-29T07:27:39;25.10;1.00
18779;DHT22;9518;51.720;14.384;2023-07-29T07:30:07;24.90;1.00
18779;DHT22;9518;51.720;14.384;2023-07-29T07:32:34;24.80;1.00
18779;DHT22;9518;51.720;14.384;2023-07-29T07:35:02;24.60;1.00
18779;DHT22;9518;51.720;14.384;2023-07-29T07:37:29;24.70;1.00
18779;DHT22;9518;51.720;14.384;2023-07-29T07:39:58;24.80;1.00
18779;DHT22;9518;51.720;14.384;2023-07-29T07:42:25;24.90;1.00
18779;DHT22;9518;51.720;14.384;2023-07-29T07:44:55;24.90;1.00
18779;DHT22;9518;51.720;14.384;2023-07-29T07:47:22;24.90;1.00
18779;DHT22;9518;51.720;14.384;2023-07-29T07:49:49;25.00;1.00
18779;DHT22;9518;51.720;14.384;2023-07-29T07:52:16;25.00;1.00
18779;DHT22;9518;51.720;14.384;2023-07-29T07:54:43;25.00;1.00
18779;DHT22;9518;51.720;14.384;2023-07-29T07:57:12;25.00;1.00
18779;DHT22;9518;51.720;14.384;2023-07-29T07:59:39;24.80;1.00
18779;DHT22;9518;51.720;14.384;2023-07-29T08:02:06;24.80;1.00
18779;DHT22;9518;51.720;14.384;2023-07-29T08:04:33;25.00;1.00
18779;DHT22;9518;51.720;14.384;2023-07-29T08:06:59;25.60;1.00
18779;DHT22;9518;51.720;14.384;2023-07-29T08:09:26;26.10;1.00
18779;DHT22;9518;51.720;14.384;2023-07-29T08:11:54;26.20;1.00
18779;DHT22;9518;51.720;14.384;2023-07-29T08:14:22;26.40;1.00
18779;DHT22;9518;51.720;14.384;2023-07-29T08:16:49;26.10;1.00
18779;DHT22;9518;51.720;14.384;2023-07-29T08:19:16;26.10;1.00
18779;DHT22;9518;51.720;14.384;2023-07-29T08:21:43;26.00;1.00
18779;DHT22;9518;51.720;14.384;2023-07-29T08:24:10;25.90;1.00
18779;DHT22;9518;51.720;14.384;2023-07-29T08:26:37;26.00;1.00
18779;DHT22;9518;51.720;14.384;2023-07-29T08:29:04;26.20;1.00
18779;DHT22;9518;51.720;14.384;2023-07-29T08:31:32;26.30;1.00
18779;DHT22;9518;51.720;14.384;2023-07-29T08:33:59;26.40;1.00
18779;DHT22;9518;51.720;14.384;2023-07-29T08:36:27;26.90;1.00
18779;DHT22;9518;51.720;14.384;2023-07-29T08:38:54;27.00;1.00
18779;DHT22;9518;51.720;14.384;2023-07-29T08:41:25;26.70;1.00
18779;DHT22;9518;51.720;14.384;2023-07-29T08:43:58;26.40;1.00
18779;DHT22;9518;51.720;14.384;2023-07-29T08:46:26;26.30;1.00
18779;DHT22;9518;51.720;14.384;2023-07-29T08:48:55;26.20;1.00
18779;DHT22;9518;51.720;14.384;2023-07-29T08:51:23;25.80;1.00
18779;DHT22;9518;51.720;14.384;2023-07-29T08:53:51;25.50;1.00
18779;DHT22;9518;51.720;14.384;2023-07-29T08:56:18;25.70;1.00
18779;DHT22;9518;51.720;14.384;2023-07-29T08:58:45;26.10;1.00
18779;DHT22;9518;51.720;14.384;2023-07-29T09:01:14;26.50;1.00
18779;DHT22;9518;51.720;14.384;2023-07-29T09:03:41;26.60;1.00
18779;DHT22;9518;51.720;14.384;2023-07-29T09:06:10;26.80;1.00
18779;DHT22;9518;51.720;14.384;2023-07-29T09:08:38;27.10;1.00
18779;DHT22;9518;51.720;14.384;2023-07-29T09:11:06;27.30;1.00
18779;DHT22;9518;51.720;14.384;2023-07-29T09:13:33;27.50;1.00
18779;DHT22;9518;51.720;14.384;2023-07-29T09:16:00;27.10;1.00
18779;DHT22;9518;51.720;14.384;2023-07-29T09:18:27;27.40;1.00
18779;DHT22;9518;51.720;14.384;2023-07-29T09:20:59;28.10;1.00
18779;DHT22;9518;51.720;14.384;2023-07-29T09:23:28;28.40;1.00
18779;DHT22;9518;51.720;14.384;2023-07-29T09:26:00;28.60;1.00
18779;DHT22;9518;51.720;14.384;2023-07-29T09:28:33;28.50;1.00
18779;DHT22;9518;51.720;14.384;2023-07-29T09:31:00;28.50;99.90
18779;DHT22;9518;51.720;14.384;2023-07-29T09:33:27;28.30;99.90
18779;DHT22;9518;51.720;14.384;2023-07-29T09:35:55;27.90;99.90
18779;DHT22;9518;51.720;14.384;2023-07-29T09:38:27;27.90;99.90
18779;DHT22;9518;51.720;14.384;2023-07-29T09:40:56;28.00;99.90
18779;DHT22;9518;51.720;14.384;2023-07-29T09:43:25;28.10;99.90
18779;DHT22;9518;51.720;14.384;2023-07-29T09:45:53;28.50;99.90
18779;DHT22;9518;51.720;14.384;2023-07-29T09:48:22;28.80;99.90
18779;DHT22;9518;51.720;14.384;2023-07-29T09:50:49;29.10;99.90
18779;DHT22;9518;51.720;14.384;2023-07-29T09:53:17;29.20;99.90
18779;DHT22;9518;51.720;14.384;2023-07-29T09:55:48;28.80;99.90
18779;DHT22;9518;51.720;14.384;2023-07-29T09:58:19;28.90;99.90
18779;DHT22;9518;51.720;14.384;2023-07-29T10:00:47;28.90;99.90
18779;DHT22;9518;51.720;14.384;2023-07-29T10:03:14;29.20;99.90
18779;DHT22;9518;51.720;14.384;2023-07-29T10:05:42;29.10;99.90
18779;DHT22;9518;51.720;14.384;2023-07-29T10:08:10;28.40;99.90
18779;DHT22;9518;51.720;14.384;2023-07-29T10:10:37;28.20;99.90
18779;DHT22;9518;51.720;14.384;2023-07-29T10:13:06;28.00;99.90
18779;DHT22;9518;51.720;14.384;2023-07-29T10:15:33;27.70;99.90
18779;DHT22;9518;51.720;14.384;2023-07-29T10:18:02;27.60;99.90
18779;DHT22;9518;51.720;14.384;2023-07-29T10:20:30;27.40;99.90
18779;DHT22;9518;51.720;14.384;2023-07-29T10:22:59;27.40;99.90
18779;DHT22;9518;51.720;14.384;2023-07-29T10:25:33;27.50;99.90
18779;DHT22;9518;51.720;14.384;2023-07-29T10:28:07;27.40;99.90
18779;DHT22;9518;51.720;14.384;2023-07-29T10:30:34;27.40;99.90
18779;DHT22;9518;51.720;14.384;2023-07-29T10:33:03;27.80;99.90
18779;DHT22;9518;51.720;14.384;2023-07-29T10:35:30;28.00;99.90
18779;DHT22;9518;51.720;14.384;2023-07-29T10:37:59;28.00;99.90
18779;DHT22;9518;51.720;14.384;2023-07-29T10:40:43;28.00;99.90
18779;DHT22;9518;51.720;14.384;2023-07-29T10:43:13;27.90;99.90
18779;DHT22;9518;51.720;14.384;2023-07-29T10:45:44;28.00;99.90
18779;DHT22;9518;51.720;14.384;2023-07-29T10:48:12;27.90;99.90
18779;DHT22;9518;51.720;14.384;2023-07-29T10:50:39;27.90;99.90
18779;DHT22;9518;51.720;14.384;2023-07-29T10:53:06;28.00;99.90
18779;DHT22;9518;51.720;14.384;2023-07-29T10:55:35;28.20;99.90
18779;DHT22;9518;51.720;14.384;2023-07-29T10:58:13;28.20;99.90
18779;DHT22;9518;51.720;14.384;2023-07-29T11:00:42;28.30;99.90
18779;DHT22;9518;51.720;14.384;2023-07-29T11:03:11;28.30;99.90
18779;DHT22;9518;51.720;14.384;2023-07-29T11:05:47;28.30;99.90
18779;DHT22;9518;51.720;14.384;2023-07-29T11:08:18;28.20;99.90
18779;DHT22;9518;51.720;14.384;2023-07-29T11:10:58;28.00;99.90
18779;DHT22;9518;51.720;14.384;2023-07-29T11:13:28;27.90;99.90
18779;DHT22;9518;51.720;14.384;2023-07-29T11:15:56;27.90;99.90
18779;DHT22;9518;51.720;14.384;2023-07-29T11:18:27;27.80;99.90
18779;DHT22;9518;51.720;14.384;2023-07-29T11:20:55;28.00;99.90
18779;DHT22;9518;51.720;14.384;2023-07-29T11:23:28;28.10;99.90
18779;DHT22;9518;51.720;14.384;2023-07-29T11:25:56;28.10;99.90
18779;DHT22;9518;51.720;14.384;2023-07-29T11:28:24;28.30;99.90
18779;DHT22;9518;51.720;14.384;2023-07-29T11:30:53;28.40;99.90
18779;DHT22;9518;51.720;14.384;2023-07-29T11:33:21;28.40;99.90
18779;DHT22;9518;51.720;14.384;2023-07-29T11:35:49;28.50;99.90
18779;DHT22;9518;51.720;14.384;2023-07-29T11:38:17;28.80;99.90
18779;DHT22;9518;51.720;14.384;2023-07-29T11:40:54;28.90;99.90
18779;DHT22;9518;51.720;14.384;2023-07-29T11:43:21;29.00;99.90
18779;DHT22;9518;51.720;14.384;2023-07-29T11:45:48;29.40;99.90
18779;DHT22;9518;51.720;14.384;2023-07-29T11:48:17;29.70;99.90
18779;DHT22;9518;51.720;14.384;2023-07-29T11:50:45;29.60;99.90
18779;DHT22;9518;51.720;14.384;2023-07-29T11:53:12;29.20;99.90
18779;DHT22;9518;51.720;14.384;2023-07-29T11:55:39;28.80;99.90
18779;DHT22;9518;51.720;14.384;2023-07-29T11:58:07;28.80;99.90
18779;DHT22;9518;51.720;14.384;2023-07-29T12:00:34;28.50;99.90
18779;DHT22;9518;51.720;14.384;2023-07-29T12:03:01;29.00;99.90
18779;DHT22;9518;51.720;14.384;2023-07-29T12:05:30;29.40;99.90
18779;DHT22;9518;51.720;14.384;2023-07-29T12:07:57;29.60;99.90
18779;DHT22;9518;51.720;14.384;2023-07-29T12:10:26;29.90;99.90
18779;DHT22;9518;51.720;14.384;2023-07-29T12:12:53;30.90;99.90
18779;DHT22;9518;51.720;14.384;2023-07-29T12:15:24;31.20;99.90
18779;DHT22;9518;51.720;14.384;2023-07-29T12:17:53;31.10;99.90
18779;DHT22;9518;51.720;14.384;2023-07-29T12:20:22;30.50;99.90
18779;DHT22;9518;51.720;14.384;2023-07-29T12:22:54;29.80;99.90
18779;DHT22;9518;51.720;14.384;2023-07-29T12:25:21;29.40;99.90
18779;DHT22;9518;51.720;14.384;2023-07-29T12:27:49;28.90;99.90
18779;DHT22;9518;51.720;14.384;2023-07-29T12:30:20;28.80;99.90
18779;DHT22;9518;51.720;14.384;2023-07-29T12:32:47;28.70;99.90
18779;DHT22;9518;51.720;14.384;2023-07-29T12:35:15;29.10;99.90
18779;DHT22;9518;51.720;14.384;2023-07-29T12:37:42;29.30;99.90
18779;DHT22;9518;51.720;14.384;2023-07-29T12:40:23;30.50;99.90
18779;DHT22;9518;51.720;14.384;2023-07-29T12:42:50;31.90;99.90
18779;DHT22;9518;51.720;14.384;2023-07-29T12:45:18;32.20;99.90
18779;DHT22;9518;51.720;14.384;2023-07-29T12:47:47;32.00;99.90
18779;DHT22;9518;51.720;14.384;2023-07-29T12:50:14;31.10;99.90
18779;DHT22;9518;51.720;14.384;2023-07-29T12:52:41;30.30;99.90
18779;DHT22;9518;51.720;14.384;2023-07-29T12:55:08;29.80;99.90
18779;DHT22;9518;51.720;14.384;2023-07-29T12:57:41;29.90;99.90
18779;DHT22;9518;51.720;14.384;2023-07-29T13:00:09;29.80;99.90
18779;DHT22;9518;51.720;14.384;2023-07-29T13:02:37;29.60;99.90
18779;DHT22;9518;51.720;14.384;2023-07-29T13:05:05;29.30;99.90
18779;DHT22;9518;51.720;14.384;2023-07-29T13:07:32;29.20;99.90
18779;DHT22;9518;51.720;14.384;2023-07-29T13:10:00;29.20;99.90
18779;DHT22;9518;51.720;14.384;2023-07-29T13:12:27;29.00;99.90
18779;DHT22;9518;51.720;14.384;2023-07-29T13:14:55;28.90;99.90
18779;DHT22;9518;51.720;14.384;2023-07-29T13:17:23;28.40;99.90
18779;DHT22;9518;51.720;14.384;2023-07-29T13:19:50;28.10;99.90
18779;DHT22;9518;51.720;14.384;2023-07-29T13:22:17;27.80;99.90
18779;DHT22;9518;51.720;14.384;2023-07-29T13:24:44;27.50;99.90
18779;DHT22;9518;51.720;14.384;2023-07-29T13:27:11;27.10;99.90
18779;DHT22;9518;51.720;14.384;2023-07-29T13:29:39;26.90;99.90
18779;DHT22;9518;51.720;14.384;2023-07-29T13:32:08;26.70;99.90
18779;DHT22;9518;51.720;14.384;2023-07-29T13:34:36;26.60;99.90
18779;DHT22;9518;51.720;14.384;2023-07-29T13:37:05;26.40;99.90
18779;DHT22;9518;51.720;14.384;2023-07-29T13:39:32;26.50;99.90
18779;DHT22;9518;51.720;14.384;2023-07-29T13:41:59;26.40;99.90
18779;DHT22;9518;51.720;14.384;2023-07-29T13:44:26;26.20;99.90
18779;DHT22;9518;51.720;14.384;2023-07-29T13:46:53;26.10;99.90
18779;DHT22;9518;51.720;14.384;2023-07-29T13:49:22;26.30;99.90
18779;DHT22;9518;51.720;14.384;2023-07-29T13:51:49;26.70;99.90
18779;DHT22;9518;51.720;14.384;2023-07-29T13:54:16;26.90;99.90
18779;DHT22;9518;51.720;14.384;2023-07-29T13:56:43;27.40;99.90
18779;DHT22;9518;51.720;14.384;2023-07-29T13:59:10;27.50;99.90
18779;DHT22;9518;51.720;14.384;2023-07-29T14:01:37;27.30;99.90
18779;DHT22;9518;51.720;14.384;2023-07-29T14:04:04;27.00;99.90
18779;DHT22;9518;51.720;14.384;2023-07-29T14:06:32;26.90;99.90
18779;DHT22;9518;51.720;14.384;2023-07-29T14:08:59;26.80;99.90
18779;DHT22;9518;51.720;14.384;2023-07-29T14:11:26;26.80;99.90
18779;DHT22;9518;51.720;14.384;2023-07-29T14:13:53;26.70;99.90
18779;DHT22;9518;51.720;14.384;2023-07-29T14:16:20;26.40;99.90
18779;DHT22;9518;51.720;14.384;2023-07-29T14:18:47;26.00;99.90
18779;DHT22;9518;51.720;14.384;2023-07-29T14:21:14;25.40;99.90
18779;DHT22;9518;51.720;14.384;2023-07-29T14:23:43;24.90;99.90
18779;DHT22;9518;51.720;14.384;2023-07-29T14:26:10;24.50;1.00
18779;DHT22;9518;51.720;14.384;2023-07-29T14:28:37;24.40;1.00
18779;DHT22;9518;51.720;14.384;2023-07-29T14:31:04;24.20;1.00
18779;DHT22;9518;51.720;14.384;2023-07-29T14:33:31;23.90;1.00
18779;DHT22;9518;51.720;14.384;2023-07-29T14:35:58;23.60;1.00
18779;DHT22;9518;51.720;14.384;2023-07-29T14:38:25;23.40;1.00
18779;DHT22;9518;51.720;14.384;2023-07-29T14:40:54;23.10;1.00
18779;DHT22;9518;51.720;14.384;2023-07-29T14:43:22;22.80;1.00
18779;DHT22;9518;51.720;14.384;2023-07-29T14:45:49;21.70;1.00
18779;DHT22;9518;51.720;14.384;2023-07-29T14:48:16;20.50;99.90
18779;DHT22;9518;51.720;14.384;2023-07-29T14:50:43;19.60;1.00
18779;DHT22;9518;51.720;14.384;2023-07-29T14:53:10;18.80;99.90
18779;DHT22;9518;51.720;14.384;2023-07-29T14:55:37;18.40;99.90
18779;DHT22;9518;51.720;14.384;2023-07-29T14:58:06;18.20;99.90
18779;DHT22;9518;51.720;14.384;2023-07-29T15:00:33;18.20;99.90
18779;DHT22;9518;51.720;14.384;2023-07-29T15:03:00;18.30;99.90
18779;DHT22;9518;51.720;14.384;2023-07-29T15:05:27;18.30;99.90
18779;DHT22;9518;51.720;14.384;2023-07-29T15:07:54;18.50;99.90
18779;DHT22;9518;51.720;14.384;2023-07-29T15:10:21;18.70;99.90
18779;DHT22;9518;51.720;14.384;2023-07-29T15:12:48;18.90;99.90
18779;DHT22;9518;51.720;14.384;2023-07-29T15:15:17;19.00;99.90
18779;DHT22;9518;51.720;14.384;2023-07-29T15:17:44;19.10;99.90
18779;DHT22;9518;51.720;14.384;2023-07-29T15:20:11;19.20;99.90
18779;DHT22;9518;51.720;14.384;2023-07-29T15:22:38;19.40;99.90
18779;DHT22;9518;51.720;14.384;2023-07-29T15:25:08;19.60;99.90
18779;DHT22;9518;51.720;14.384;2023-07-29T15:27:35;19.60;99.90
18779;DHT22;9518;51.720;14.384;2023-07-29T15:30:02;19.50;99.90
18779;DHT22;9518;51.720;14.384;2023-07-29T15:32:31;19.40;99.90
18779;DHT22;9518;51.720;14.384;2023-07-29T15:34:58;19.30;99.90
18779;DHT22;9518;51.720;14.384;2023-07-29T15:37:25;19.20;99.90
18779;DHT22;9518;51.720;14.384;2023-07-29T15:39:52;19.30;99.90